• Join FlightAware (Why Join?)
  • Login
  • US Flag 
02:23PM EDT


 

Airport Tracker/Info


-or-


 

Live Flight TrackerFlight Track Log ✈ ADR726 ✈ 25-Aug-2013 ✈ LJLJ / LJU - LATI / TIA

Flight Track Log - Related Links

Times and Time Zones

All times are in EDT time to prevent confusion due to time zone crossing. See the ADR726 flight status page for this flight to view local times or setup timezone preferences in your user account.

Time Position Orientation Groundspeed Altitude Reporting Facility
EDT Latitude Longitude Course Direction KTS MPH feet Rate Location/Type
05:23PM 45.7095 15.0767 140° Southeast  Level Estimated
05:24PM 45.6358 15.1642 140° Southeast  Level Estimated
05:25PM 45.5620 15.2515 140° Southeast  Level Estimated
05:26PM 45.4881 15.3385 140° Southeast  Level Estimated
05:27PM 45.4142 15.4254 140° Southeast  Level Estimated
05:28PM 45.3402 15.5119 141° Southeast  Level Estimated
05:29PM 45.2662 15.5983 141° Southeast  Level Estimated
05:30PM 45.1921 15.6845 141° Southeast  Level Estimated
05:31PM 45.1179 15.7704 141° Southeast  Level Estimated
05:32PM 45.0436 15.8561 141° Southeast  Level Estimated
05:33PM 44.9693 15.9415 141° Southeast  Level Estimated
05:34PM 44.8949 16.0268 141° Southeast  Level Estimated
05:35PM 44.8205 16.1118 141° Southeast  Level Estimated
05:36PM 44.7460 16.1966 141° Southeast  Level Estimated
05:37PM 44.6714 16.2812 141° Southeast  Level Estimated
05:38PM 44.5968 16.3656 141° Southeast  Level Estimated
05:39PM 44.5221 16.4498 141° Southeast  Level Estimated
05:40PM 44.4474 16.5337 141° Southeast  Level Estimated
05:41PM 44.3726 16.6174 141° Southeast  Level Estimated
05:42PM 44.2977 16.7009 141° Southeast  Level Estimated
05:43PM 44.2228 16.7842 141° Southeast  Level Estimated
05:44PM 44.1478 16.8673 142° Southeast  Level Estimated
05:45PM 44.0727 16.9502 142° Southeast  Level Estimated
05:46PM 43.9976 17.0329 142° Southeast  Level Estimated
05:47PM 43.9224 17.1153 142° Southeast  Level Estimated
05:48PM 43.8472 17.1976 142° Southeast  Level Estimated
05:49PM 43.7719 17.2796 142° Southeast  Level Estimated
05:50PM 43.6966 17.3615 142° Southeast  Level Estimated
05:51PM 43.6212 17.4431 142° Southeast  Level Estimated
05:52PM 43.5457 17.5245 142° Southeast  Level Estimated
05:53PM 43.4702 17.6057 142° Southeast  Level Estimated
05:54PM 43.3946 17.6868 142° Southeast  Level Estimated
05:55PM 43.3190 17.7676 142° Southeast  Level Estimated
05:56PM 43.2433 17.8482 142° Southeast  Level Estimated
05:57PM 43.1675 17.9286 142° Southeast  Level Estimated
05:58PM 43.0917 18.0088 142° Southeast  Level Estimated
05:59PM 43.0158 18.0889 142° Southeast  Level Estimated
06:00PM 42.9399 18.1687 142° Southeast  Level Estimated
06:01PM 42.8639 18.2483 142° Southeast  Level Estimated
06:02PM 42.7879 18.3277 143° Southeast  Level Estimated
06:03PM 42.7118 18.4070 143° Southeast  Level Estimated
06:04PM 42.6357 18.4860 143° Southeast  Level Estimated
06:05PM 42.5595 18.5649 143° Southeast  Level Estimated
06:06PM 42.4833 18.6435 143° Southeast  Level Estimated
06:07PM 42.4070 18.7220 143° Southeast  Level Estimated
06:08PM 42.3306 18.8002 143° Southeast  Level Estimated
06:09PM 42.2542 18.8783 143° Southeast  Level Estimated
06:10PM 42.1777 18.9562 143° Southeast  Level Estimated
06:11PM 42.1012 19.0339 143° Southeast  Level Estimated
06:12PM 42.0247 19.1114 143° Southeast  Level Estimated
06:13PM 41.9481 19.1888 143° Southeast  Level Estimated
06:14PM 41.8714 19.2659 143° Southeast  Level Estimated
06:15PM 41.7947 19.3429 143° Southeast  Level Estimated
06:16PM 41.7179 19.4197 143° Southeast  Level Estimated
06:17PM 41.6411 19.4963 143° Southeast  Level Estimated
06:18PM 41.5642 19.5727 143° Southeast  Level Estimated
06:19PM 41.4873 19.6489 143° Southeast  Level Estimated
06:20PM 41.4147 19.7206 143° Southeast  Level Estimated
06:21PM 41.4147 19.7206 21° North  Level Estimated
06:22PM 41.4147 19.7206 21° North  Level Estimated
06:23PM 41.4147 19.7206 21° North  Level Estimated
06:24PM 41.4147 19.7206 21° North  Level Estimated
06:25PM 41.4147 19.7206 21° North  Level Estimated
06:26PM 41.4147 19.7206 21° North  Level Estimated
06:27PM 41.4147 19.7206 21° North  Level Estimated
06:28PM 41.4147 19.7206 21° North  Level Estimated
06:29PM 41.4147 19.7206 21° North  Level Estimated
06:30PM 41.4147 19.7206 21° North  Level Estimated
06:31PM 41.4147 19.7206 21° North  Level Estimated
06:32PM 41.4147 19.7206 21° North  Level Estimated
06:33PM 41.4147 19.7206 21° North  Level Estimated
06:34PM 41.4147 19.7206 21° North  Level Estimated
06:35PM 41.4147 19.7206 21° North  Level Estimated
06:36PM 41.4147 19.7206 21° North  Level Estimated